sensor_id;sensor_type;location;lat;lon;timestamp;P1;durP1;ratioP1;P2;durP2;ratioP2
14346;SDS011;7257;52.158;9.968;2022-10-16T00:00:18;1.80;;;1.65;;
14346;SDS011;7257;52.158;9.968;2022-10-16T00:00:41;1.90;;;1.50;;
14346;SDS011;7257;52.158;9.968;2022-10-16T00:01:07;2.00;;;1.60;;
14346;SDS011;7257;52.158;9.968;2022-10-16T00:01:31;1.77;;;1.50;;
14346;SDS011;7257;52.158;9.968;2022-10-16T00:01:53;1.67;;;1.58;;
14346;SDS011;7257;52.158;9.968;2022-10-16T00:02:13;1.63;;;1.52;;
14346;SDS011;7257;52.158;9.968;2022-10-16T00:02:37;1.70;;;1.60;;
14346;SDS011;7257;52.158;9.968;2022-10-16T00:02:58;2.20;;;2.00;;
14346;SDS011;7257;52.158;9.968;2022-10-16T00:03:19;2.63;;;2.43;;
14346;SDS011;7257;52.158;9.968;2022-10-16T00:03:40;2.80;;;2.60;;
14346;SDS011;7257;52.158;9.968;2022-10-16T00:04:02;2.35;;;2.15;;
14346;SDS011;7257;52.158;9.968;2022-10-16T00:04:24;1.75;;;1.63;;
14346;SDS011;7257;52.158;9.968;2022-10-16T00:04:45;3.05;;;1.63;;
14346;SDS011;7257;52.158;9.968;2022-10-16T00:05:06;3.60;;;1.58;;
14346;SDS011;7257;52.158;9.968;2022-10-16T00:05:27;3.50;;;1.40;;
14346;SDS011;7257;52.158;9.968;2022-10-16T00:05:52;2.00;;;1.30;;
14346;SDS011;7257;52.158;9.968;2022-10-16T00:06:13;1.60;;;1.50;;
14346;SDS011;7257;52.158;9.968;2022-10-16T00:06:35;1.70;;;1.58;;
14346;SDS011;7257;52.158;9.968;2022-10-16T00:06:59;1.58;;;1.45;;
14346;SDS011;7257;52.158;9.968;2022-10-16T00:07:21;1.67;;;1.58;;
14346;SDS011;7257;52.158;9.968;2022-10-16T00:07:42;1.83;;;1.73;;
14346;SDS011;7257;52.158;9.968;2022-10-16T00:08:03;2.20;;;2.05;;
14346;SDS011;7257;52.158;9.968;2022-10-16T00:08:24;2.38;;;2.17;;
14346;SDS011;7257;52.158;9.968;2022-10-16T00:08:45;2.70;;;2.50;;
14346;SDS011;7257;52.158;9.968;2022-10-16T00:09:08;2.45;;;2.25;;
14346;SDS011;7257;52.158;9.968;2022-10-16T00:09:29;3.40;;;1.77;;
14346;SDS011;7257;52.158;9.968;2022-10-16T00:09:50;3.67;;;1.43;;
14346;SDS011;7257;52.158;9.968;2022-10-16T00:10:11;3.80;;;1.30;;
14346;SDS011;7257;52.158;9.968;2022-10-16T00:10:32;2.38;;;1.55;;
14346;SDS011;7257;52.158;9.968;2022-10-16T00:10:58;1.95;;;1.70;;
14346;SDS011;7257;52.158;9.968;2022-10-16T00:11:20;1.80;;;1.60;;
14346;SDS011;7257;52.158;9.968;2022-10-16T00:11:42;2.20;;;1.70;;
14346;SDS011;7257;52.158;9.968;2022-10-16T00:12:04;2.50;;;2.00;;
14346;SDS011;7257;52.158;9.968;2022-10-16T00:12:26;3.65;;;1.98;;
14346;SDS011;7257;52.158;9.968;2022-10-16T00:12:47;3.33;;;1.73;;
14346;SDS011;7257;52.158;9.968;2022-10-16T00:13:09;3.03;;;1.52;;
14346;SDS011;7257;52.158;9.968;2022-10-16T00:13:29;2.28;;;1.80;;
14346;SDS011;7257;52.158;9.968;2022-10-16T00:13:54;2.20;;;2.00;;
14346;SDS011;7257;52.158;9.968;2022-10-16T00:14:16;2.22;;;1.90;;
14346;SDS011;7257;52.158;9.968;2022-10-16T00:14:37;2.23;;;1.57;;
14346;SDS011;7257;52.158;9.968;2022-10-16T00:15:00;2.80;;;1.42;;
14346;SDS011;7257;52.158;9.968;2022-10-16T00:15:21;2.80;;;1.60;;
14346;SDS011;7257;52.158;9.968;2022-10-16T00:15:44;2.50;;;1.80;;
14346;SDS011;7257;52.158;9.968;2022-10-16T00:16:04;1.90;;;1.80;;
14346;SDS011;7257;52.158;9.968;2022-10-16T00:16:26;2.13;;;1.75;;
14346;SDS011;7257;52.158;9.968;2022-10-16T00:16:48;2.10;;;1.70;;
14346;SDS011;7257;52.158;9.968;2022-10-16T00:17:09;2.05;;;1.80;;
14346;SDS011;7257;52.158;9.968;2022-10-16T00:17:30;2.03;;;1.92;;
14346;SDS011;7257;52.158;9.968;2022-10-16T00:17:51;2.05;;;1.85;;
14346;SDS011;7257;52.158;9.968;2022-10-16T00:18:12;2.17;;;1.98;;
14346;SDS011;7257;52.158;9.968;2022-10-16T00:18:35;2.28;;;1.73;;
14346;SDS011;7257;52.158;9.968;2022-10-16T00:18:57;2.15;;;1.85;;
14346;SDS011;7257;52.158;9.968;2022-10-16T00:19:18;2.28;;;2.08;;
14346;SDS011;7257;52.158;9.968;2022-10-16T00:19:39;2.72;;;2.53;;
14346;SDS011;7257;52.158;9.968;2022-10-16T00:20:01;2.65;;;2.45;;
14346;SDS011;7257;52.158;9.968;2022-10-16T00:20:22;2.33;;;2.10;;
14346;SDS011;7257;52.158;9.968;2022-10-16T00:20:43;2.15;;;1.67;;
14346;SDS011;7257;52.158;9.968;2022-10-16T00:21:05;1.90;;;1.48;;
14346;SDS011;7257;52.158;9.968;2022-10-16T00:21:28;1.80;;;1.60;;
14346;SDS011;7257;52.158;9.968;2022-10-16T00:21:51;2.10;;;1.90;;
14346;SDS011;7257;52.158;9.968;2022-10-16T00:22:12;2.35;;;2.15;;
14346;SDS011;7257;52.158;9.968;2022-10-16T00:22:32;3.25;;;2.70;;
14346;SDS011;7257;52.158;9.968;2022-10-16T00:22:53;3.70;;;3.07;;
14346;SDS011;7257;52.158;9.968;2022-10-16T00:23:16;3.78;;;3.15;;
14346;SDS011;7257;52.158;9.968;2022-10-16T00:23:37;2.50;;;2.30;;
14346;SDS011;7257;52.158;9.968;2022-10-16T00:24:00;2.05;;;1.85;;
14346;SDS011;7257;52.158;9.968;2022-10-16T00:24:22;2.20;;;2.00;;
14346;SDS011;7257;52.158;9.968;2022-10-16T00:24:43;2.05;;;1.83;;
14346;SDS011;7257;52.158;9.968;2022-10-16T00:25:04;1.90;;;1.65;;
14346;SDS011;7257;52.158;9.968;2022-10-16T00:25:25;1.70;;;1.40;;
14346;SDS011;7257;52.158;9.968;2022-10-16T00:25:53;2.10;;;1.70;;
14346;SDS011;7257;52.158;9.968;2022-10-16T00:26:16;1.92;;;1.70;;
14346;SDS011;7257;52.158;9.968;2022-10-16T00:26:37;2.30;;;1.65;;
14346;SDS011;7257;52.158;9.968;2022-10-16T00:26:59;2.50;;;2.00;;
14346;SDS011;7257;52.158;9.968;2022-10-16T00:27:21;3.88;;;2.60;;
14346;SDS011;7257;52.158;9.968;2022-10-16T00:27:44;3.22;;;2.28;;
14346;SDS011;7257;52.158;9.968;2022-10-16T00:28:05;3.53;;;2.33;;
14346;SDS011;7257;52.158;9.968;2022-10-16T00:28:26;2.97;;;2.67;;
14346;SDS011;7257;52.158;9.968;2022-10-16T00:28:49;3.17;;;2.88;;
14346;SDS011;7257;52.158;9.968;2022-10-16T00:29:11;2.65;;;2.45;;
14346;SDS011;7257;52.158;9.968;2022-10-16T00:29:32;2.70;;;2.50;;
14346;SDS011;7257;52.158;9.968;2022-10-16T00:29:53;3.05;;;2.85;;
14346;SDS011;7257;52.158;9.968;2022-10-16T00:30:15;2.80;;;2.60;;
14346;SDS011;7257;52.158;9.968;2022-10-16T00:30:37;2.35;;;2.15;;
14346;SDS011;7257;52.158;9.968;2022-10-16T00:31:01;2.35;;;2.15;;
14346;SDS011;7257;52.158;9.968;2022-10-16T00:31:26;2.70;;;2.50;;
14346;SDS011;7257;52.158;9.968;2022-10-16T00:31:47;2.88;;;2.58;;
14346;SDS011;7257;52.158;9.968;2022-10-16T00:32:11;3.03;;;2.53;;
14346;SDS011;7257;52.158;9.968;2022-10-16T00:32:32;2.90;;;2.67;;
14346;SDS011;7257;52.158;9.968;2022-10-16T00:32:53;3.22;;;2.92;;
14346;SDS011;7257;52.158;9.968;2022-10-16T00:33:14;3.45;;;3.15;;
14346;SDS011;7257;52.158;9.968;2022-10-16T00:33:35;3.42;;;3.05;;
14346;SDS011;7257;52.158;9.968;2022-10-16T00:33:58;2.97;;;2.60;;
14346;SDS011;7257;52.158;9.968;2022-10-16T00:34:20;2.65;;;2.45;;
14346;SDS011;7257;52.158;9.968;2022-10-16T00:34:41;2.42;;;2.22;;
14346;SDS011;7257;52.158;9.968;2022-10-16T00:35:02;2.33;;;2.13;;
14346;SDS011;7257;52.158;9.968;2022-10-16T00:35:23;1.90;;;1.80;;
14346;SDS011;7257;52.158;9.968;2022-10-16T00:35:45;1.98;;;1.77;;
14346;SDS011;7257;52.158;9.968;2022-10-16T00:36:07;2.33;;;1.60;;
14346;SDS011;7257;52.158;9.968;2022-10-16T00:36:30;2.40;;;1.73;;
14346;SDS011;7257;52.158;9.968;2022-10-16T00:36:52;3.08;;;1.88;;
14346;SDS011;7257;52.158;9.968;2022-10-16T00:37:13;3.20;;;2.20;;
14346;SDS011;7257;52.158;9.968;2022-10-16T00:37:35;3.60;;;2.42;;
14346;SDS011;7257;52.158;9.968;2022-10-16T00:37:56;2.78;;;2.50;;
14346;SDS011;7257;52.158;9.968;2022-10-16T00:38:16;2.67;;;2.45;;
14346;SDS011;7257;52.158;9.968;2022-10-16T00:38:37;2.95;;;2.63;;
14346;SDS011;7257;52.158;9.968;2022-10-16T00:38:58;2.95;;;2.65;;
14346;SDS011;7257;52.158;9.968;2022-10-16T00:39:21;3.15;;;2.65;;
14346;SDS011;7257;52.158;9.968;2022-10-16T00:39:42;2.63;;;2.42;;
14346;SDS011;7257;52.158;9.968;2022-10-16T00:40:03;2.58;;;2.13;;
14346;SDS011;7257;52.158;9.968;2022-10-16T00:40:24;3.15;;;2.20;;
14346;SDS011;7257;52.158;9.968;2022-10-16T00:40:48;3.20;;;2.20;;
14346;SDS011;7257;52.158;9.968;2022-10-16T00:41:09;3.05;;;2.05;;
14346;SDS011;7257;52.158;9.968;2022-10-16T00:41:33;2.80;;;1.80;;
14346;SDS011;7257;52.158;9.968;2022-10-16T00:41:55;2.60;;;1.80;;
14346;SDS011;7257;52.158;9.968;2022-10-16T00:42:18;2.28;;;1.90;;
14346;SDS011;7257;52.158;9.968;2022-10-16T00:42:39;2.90;;;2.10;;
14346;SDS011;7257;52.158;9.968;2022-10-16T00:43:00;3.00;;;1.95;;
14346;SDS011;7257;52.158;9.968;2022-10-16T00:43:37;2.30;;;1.90;;
14346;SDS011;7257;52.158;9.968;2022-10-16T00:44:00;2.65;;;1.92;;
14346;SDS011;7257;52.158;9.968;2022-10-16T00:44:42;2.50;;;1.80;;
14346;SDS011;7257;52.158;9.968;2022-10-16T00:45:10;2.10;;;1.90;;
14346;SDS011;7257;52.158;9.968;2022-10-16T00:45:30;2.58;;;2.38;;
14346;SDS011;7257;52.158;9.968;2022-10-16T00:45:51;2.63;;;2.42;;
14346;SDS011;7257;52.158;9.968;2022-10-16T00:46:16;2.80;;;2.60;;
14346;SDS011;7257;52.158;9.968;2022-10-16T00:46:40;2.60;;;2.40;;
14346;SDS011;7257;52.158;9.968;2022-10-16T00:47:02;2.40;;;2.10;;
14346;SDS011;7257;52.158;9.968;2022-10-16T00:47:24;2.40;;;1.95;;
14346;SDS011;7257;52.158;9.968;2022-10-16T00:47:48;2.30;;;1.90;;
14346;SDS011;7257;52.158;9.968;2022-10-16T00:48:12;2.10;;;1.90;;
14346;SDS011;7257;52.158;9.968;2022-10-16T00:48:34;2.20;;;2.00;;
14346;SDS011;7257;52.158;9.968;2022-10-16T00:48:56;2.10;;;1.70;;
14346;SDS011;7257;52.158;9.968;2022-10-16T00:49:20;2.40;;;1.58;;
14346;SDS011;7257;52.158;9.968;2022-10-16T00:49:41;2.15;;;1.80;;
14346;SDS011;7257;52.158;9.968;2022-10-16T00:50:04;2.35;;;1.98;;
14346;SDS011;7257;52.158;9.968;2022-10-16T00:50:28;2.00;;;1.80;;
14346;SDS011;7257;52.158;9.968;2022-10-16T00:50:52;2.10;;;1.80;;
14346;SDS011;7257;52.158;9.968;2022-10-16T00:51:13;2.00;;;1.80;;
14346;SDS011;7257;52.158;9.968;2022-10-16T00:51:36;2.42;;;1.73;;
14346;SDS011;7257;52.158;9.968;2022-10-16T00:51:57;2.75;;;1.80;;
14346;SDS011;7257;52.158;9.968;2022-10-16T00:52:19;3.30;;;1.80;;
14346;SDS011;7257;52.158;9.968;2022-10-16T00:52:41;2.90;;;1.90;;
14346;SDS011;7257;52.158;9.968;2022-10-16T00:53:05;2.40;;;2.20;;
14346;SDS011;7257;52.158;9.968;2022-10-16T00:53:27;2.78;;;2.58;;
14346;SDS011;7257;52.158;9.968;2022-10-16T00:53:49;3.25;;;2.80;;
14346;SDS011;7257;52.158;9.968;2022-10-16T00:54:11;4.00;;;2.75;;
14346;SDS011;7257;52.158;9.968;2022-10-16T00:54:35;3.95;;;2.30;;
14346;SDS011;7257;52.158;9.968;2022-10-16T00:54:56;2.90;;;2.10;;
14346;SDS011;7257;52.158;9.968;2022-10-16T00:55:18;2.25;;;2.05;;
14346;SDS011;7257;52.158;9.968;2022-10-16T00:55:41;2.35;;;2.15;;
14346;SDS011;7257;52.158;9.968;2022-10-16T00:56:02;3.60;;;2.03;;
14346;SDS011;7257;52.158;9.968;2022-10-16T00:56:23;3.90;;;2.15;;
14346;SDS011;7257;52.158;9.968;2022-10-16T00:56:44;3.83;;;2.40;;
14346;SDS011;7257;52.158;9.968;2022-10-16T00:57:06;3.70;;;2.42;;
14346;SDS011;7257;52.158;9.968;2022-10-16T00:57:28;3.28;;;2.13;;
14346;SDS011;7257;52.158;9.968;2022-10-16T00:57:50;3.60;;;1.63;;
14346;SDS011;7257;52.158;9.968;2022-10-16T00:58:12;2.53;;;1.80;;
14346;SDS011;7257;52.158;9.968;2022-10-16T00:58:33;2.85;;;2.13;;
14346;SDS011;7257;52.158;9.968;2022-10-16T00:58:54;3.33;;;2.85;;
14346;SDS011;7257;52.158;9.968;2022-10-16T00:59:16;3.80;;;2.88;;
14346;SDS011;7257;52.158;9.968;2022-10-16T00:59:40;3.70;;;2.45;;
14346;SDS011;7257;52.158;9.968;2022-10-16T01:00:02;3.60;;;2.30;;
14346;SDS011;7257;52.158;9.968;2022-10-16T01:00:26;3.60;;;2.05;;
14346;SDS011;7257;52.158;9.968;2022-10-16T01:00:48;3.38;;;1.83;;
14346;SDS011;7257;52.158;9.968;2022-10-16T01:01:08;2.72;;;2.10;;
14346;SDS011;7257;52.158;9.968;2022-10-16T01:01:31;3.20;;;2.53;;
14346;SDS011;7257;52.158;9.968;2022-10-16T01:01:54;3.00;;;2.30;;
14346;SDS011;7257;52.158;9.968;2022-10-16T01:02:16;1.83;;;1.70;;
14346;SDS011;7257;52.158;9.968;2022-10-16T01:02:38;2.10;;;1.90;;
14346;SDS011;7257;52.158;9.968;2022-10-16T01:02:59;2.70;;;2.50;;
14346;SDS011;7257;52.158;9.968;2022-10-16T01:03:23;3.05;;;2.60;;
14346;SDS011;7257;52.158;9.968;2022-10-16T01:03:46;2.75;;;2.15;;
14346;SDS011;7257;52.158;9.968;2022-10-16T01:04:07;2.30;;;2.10;;
14346;SDS011;7257;52.158;9.968;2022-10-16T01:04:29;2.17;;;1.98;;
14346;SDS011;7257;52.158;9.968;2022-10-16T01:04:55;1.77;;;1.65;;
14346;SDS011;7257;52.158;9.968;2022-10-16T01:05:16;1.60;;;1.40;;
14346;SDS011;7257;52.158;9.968;2022-10-16T01:05:39;2.00;;;1.80;;
14346;SDS011;7257;52.158;9.968;2022-10-16T01:06:07;2.40;;;2.20;;
14346;SDS011;7257;52.158;9.968;2022-10-16T01:06:40;2.38;;;2.10;;
14346;SDS011;7257;52.158;9.968;2022-10-16T01:07:10;2.20;;;2.00;;
14346;SDS011;7257;52.158;9.968;2022-10-16T01:07:38;2.00;;;1.80;;
14346;SDS011;7257;52.158;9.968;2022-10-16T01:08:08;2.72;;;1.70;;
14346;SDS011;7257;52.158;9.968;2022-10-16T01:08:36;3.13;;;1.80;;
14346;SDS011;7257;52.158;9.968;2022-10-16T01:09:07;2.50;;;2.00;;
14346;SDS011;7257;52.158;9.968;2022-10-16T01:09:35;2.47;;;2.28;;
14346;SDS011;7257;52.158;9.968;2022-10-16T01:10:07;2.35;;;2.10;;
14346;SDS011;7257;52.158;9.968;2022-10-16T01:10:38;2.38;;;1.88;;
14346;SDS011;7257;52.158;9.968;2022-10-16T01:11:09;2.10;;;1.67;;
14346;SDS011;7257;52.158;9.968;2022-10-16T01:11:37;1.95;;;1.50;;
14346;SDS011;7257;52.158;9.968;2022-10-16T01:12:06;2.30;;;2.10;;
14346;SDS011;7257;52.158;9.968;2022-10-16T01:12:38;2.78;;;2.58;;
14346;SDS011;7257;52.158;9.968;2022-10-16T01:13:03;2.65;;;2.45;;
14346;SDS011;7257;52.158;9.968;2022-10-16T01:13:33;2.30;;;2.10;;
14346;SDS011;7257;52.158;9.968;2022-10-16T01:14:02;2.03;;;1.90;;
14346;SDS011;7257;52.158;9.968;2022-10-16T01:14:32;1.98;;;1.77;;
14346;SDS011;7257;52.158;9.968;2022-10-16T01:15:02;3.00;;;1.92;;
14346;SDS011;7257;52.158;9.968;2022-10-16T01:15:30;2.70;;;1.75;;
14346;SDS011;7257;52.158;9.968;2022-10-16T01:15:59;1.70;;;1.60;;
14346;SDS011;7257;52.158;9.968;2022-10-16T01:16:26;1.95;;;1.67;;
14346;SDS011;7257;52.158;9.968;2022-10-16T01:16:55;1.75;;;1.63;;
14346;SDS011;7257;52.158;9.968;2022-10-16T01:17:26;1.70;;;1.60;;
14346;SDS011;7257;52.158;9.968;2022-10-16T01:17:53;1.80;;;1.50;;
14346;SDS011;7257;52.158;9.968;2022-10-16T01:18:21;1.90;;;1.63;;
14346;SDS011;7257;52.158;9.968;2022-10-16T01:18:49;1.95;;;1.75;;
14346;SDS011;7257;52.158;9.968;2022-10-16T01:19:20;2.90;;;1.70;;
14346;SDS011;7257;52.158;9.968;2022-10-16T01:20:01;3.80;;;1.80;;
14346;SDS011;7257;52.158;9.968;2022-10-16T01:20:29;2.70;;;2.00;;
14346;SDS011;7257;52.158;9.968;2022-10-16T01:20:54;2.30;;;2.10;;
14346;SDS011;7257;52.158;9.968;2022-10-16T01:21:20;1.90;;;1.80;;
14346;SDS011;7257;52.158;9.968;2022-10-16T01:21:48;2.20;;;2.00;;
14346;SDS011;7257;52.158;9.968;2022-10-16T01:22:11;2.00;;;1.90;;
14346;SDS011;7257;52.158;9.968;2022-10-16T01:22:37;2.28;;;2.08;;
14346;SDS011;7257;52.158;9.968;2022-10-16T01:23:06;2.90;;;2.40;;
14346;SDS011;7257;52.158;9.968;2022-10-16T01:23:36;2.40;;;2.00;;
14346;SDS011;7257;52.158;9.968;2022-10-16T01:24:12;1.75;;;1.65;;
14346;SDS011;7257;52.158;9.968;2022-10-16T01:24:40;1.92;;;1.73;;
14346;SDS011;7257;52.158;9.968;2022-10-16T01:25:04;2.17;;;1.98;;
14346;SDS011;7257;52.158;9.968;2022-10-16T01:25:30;2.10;;;1.90;;
14346;SDS011;7257;52.158;9.968;2022-10-16T01:26:13;1.75;;;1.60;;
14346;SDS011;7257;52.158;9.968;2022-10-16T01:26:50;3.35;;;1.90;;
14346;SDS011;7257;52.158;9.968;2022-10-16T01:27:23;2.72;;;2.10;;
14346;SDS011;7257;52.158;9.968;2022-10-16T01:27:47;2.10;;;1.90;;
14346;SDS011;7257;52.158;9.968;2022-10-16T01:28:10;2.25;;;1.92;;
14346;SDS011;7257;52.158;9.968;2022-10-16T01:28:34;2.30;;;1.90;;
14346;SDS011;7257;52.158;9.968;2022-10-16T01:29:01;2.13;;;1.80;;
14346;SDS011;7257;52.158;9.968;2022-10-16T01:29:28;2.40;;;1.90;;
14346;SDS011;7257;52.158;9.968;2022-10-16T01:29:56;2.60;;;1.80;;
14346;SDS011;7257;52.158;9.968;2022-10-16T01:30:23;1.80;;;1.50;;
14346;SDS011;7257;52.158;9.968;2022-10-16T01:30:47;1.83;;;1.60;;
14346;SDS011;7257;52.158;9.968;2022-10-16T01:31:11;2.20;;;2.00;;
14346;SDS011;7257;52.158;9.968;2022-10-16T01:31:39;2.05;;;1.80;;
14346;SDS011;7257;52.158;9.968;2022-10-16T01:32:06;2.00;;;1.80;;
14346;SDS011;7257;52.158;9.968;2022-10-16T01:32:34;1.90;;;1.80;;
14346;SDS011;7257;52.158;9.968;2022-10-16T01:32:59;2.10;;;1.90;;
14346;SDS011;7257;52.158;9.968;2022-10-16T01:33:28;2.40;;;2.20;;
14346;SDS011;7257;52.158;9.968;2022-10-16T01:33:56;2.30;;;2.05;;
14346;SDS011;7257;52.158;9.968;2022-10-16T01:34:22;2.17;;;1.88;;
14346;SDS011;7257;52.158;9.968;2022-10-16T01:34:49;1.90;;;1.70;;
14346;SDS011;7257;52.158;9.968;2022-10-16T01:35:16;2.30;;;1.90;;
14346;SDS011;7257;52.158;9.968;2022-10-16T01:35:42;2.60;;;2.30;;
14346;SDS011;7257;52.158;9.968;2022-10-16T01:36:07;2.45;;;2.17;;
14346;SDS011;7257;52.158;9.968;2022-10-16T01:36:34;2.00;;;1.80;;
14346;SDS011;7257;52.158;9.968;2022-10-16T01:37:02;2.30;;;1.90;;
14346;SDS011;7257;52.158;9.968;2022-10-16T01:37:28;2.28;;;1.83;;
14346;SDS011;7257;52.158;9.968;2022-10-16T01:37:54;2.40;;;2.00;;
14346;SDS011;7257;52.158;9.968;2022-10-16T01:38:23;2.40;;;2.00;;
14346;SDS011;7257;52.158;9.968;2022-10-16T01:38:51;3.90;;;1.80;;
14346;SDS011;7257;52.158;9.968;2022-10-16T01:39:14;4.57;;;2.20;;
14346;SDS011;7257;52.158;9.968;2022-10-16T01:39:38;2.50;;;2.15;;
14346;SDS011;7257;52.158;9.968;2022-10-16T01:40:03;2.30;;;2.00;;
14346;SDS011;7257;52.158;9.968;2022-10-16T01:40:27;2.20;;;1.90;;
14346;SDS011;7257;52.158;9.968;2022-10-16T01:40:50;2.03;;;1.83;;
14346;SDS011;7257;52.158;9.968;2022-10-16T01:41:17;1.92;;;1.70;;
14346;SDS011;7257;52.158;9.968;2022-10-16T01:41:43;1.57;;;1.40;;
14346;SDS011;7257;52.158;9.968;2022-10-16T01:42:11;2.40;;;1.70;;
14346;SDS011;7257;52.158;9.968;2022-10-16T01:42:37;3.47;;;1.60;;
14346;SDS011;7257;52.158;9.968;2022-10-16T01:43:03;2.60;;;1.42;;
14346;SDS011;7257;52.158;9.968;2022-10-16T01:43:28;1.67;;;1.50;;
14346;SDS011;7257;52.158;9.968;2022-10-16T01:43:56;2.40;;;1.60;;
14346;SDS011;7257;52.158;9.968;2022-10-16T01:44:21;2.75;;;1.60;;
14346;SDS011;7257;52.158;9.968;2022-10-16T01:44:46;2.80;;;1.80;;
14346;SDS011;7257;52.158;9.968;2022-10-16T01:45:10;2.15;;;1.95;;
14346;SDS011;7257;52.158;9.968;2022-10-16T01:45:35;2.22;;;2.00;;
14346;SDS011;7257;52.158;9.968;2022-10-16T01:45:56;2.10;;;1.90;;
14346;SDS011;7257;52.158;9.968;2022-10-16T01:46:19;2.00;;;1.80;;
14346;SDS011;7257;52.158;9.968;2022-10-16T01:46:42;1.80;;;1.70;;
14346;SDS011;7257;52.158;9.968;2022-10-16T01:47:07;1.70;;;1.60;;
14346;SDS011;7257;52.158;9.968;2022-10-16T01:47:30;1.70;;;1.60;;
14346;SDS011;7257;52.158;9.968;2022-10-16T01:47:52;2.03;;;1.90;;
14346;SDS011;7257;52.158;9.968;2022-10-16T01:48:16;2.60;;;1.90;;
14346;SDS011;7257;52.158;9.968;2022-10-16T01:48:39;2.70;;;2.03;;
14346;SDS011;7257;52.158;9.968;2022-10-16T01:49:01;1.90;;;1.80;;
14346;SDS011;7257;52.158;9.968;2022-10-16T01:49:23;1.75;;;1.60;;
14346;SDS011;7257;52.158;9.968;2022-10-16T01:49:48;2.00;;;1.75;;
14346;SDS011;7257;52.158;9.968;2022-10-16T01:50:10;2.13;;;1.92;;
14346;SDS011;7257;52.158;9.968;2022-10-16T01:50:35;2.47;;;2.28;;
14346;SDS011;7257;52.158;9.968;2022-10-16T01:51:01;4.70;;;2.20;;
14346;SDS011;7257;52.158;9.968;2022-10-16T01:51:25;3.92;;;1.67;;
14346;SDS011;7257;52.158;9.968;2022-10-16T01:51:48;2.65;;;1.67;;
14346;SDS011;7257;52.158;9.968;2022-10-16T01:52:15;2.38;;;2.00;;
14346;SDS011;7257;52.158;9.968;2022-10-16T01:52:40;2.40;;;2.10;;
14346;SDS011;7257;52.158;9.968;2022-10-16T01:53:04;2.10;;;1.73;;
14346;SDS011;7257;52.158;9.968;2022-10-16T01:53:27;2.20;;;1.90;;
14346;SDS011;7257;52.158;9.968;2022-10-16T01:53:51;2.40;;;2.20;;
14346;SDS011;7257;52.158;9.968;2022-10-16T01:54:15;2.33;;;2.13;;
14346;SDS011;7257;52.158;9.968;2022-10-16T01:54:40;2.20;;;2.00;;
14346;SDS011;7257;52.158;9.968;2022-10-16T01:55:04;2.95;;;2.00;;
14346;SDS011;7257;52.158;9.968;2022-10-16T01:55:32;3.50;;;2.08;;
14346;SDS011;7257;52.158;9.968;2022-10-16T01:55:56;3.30;;;1.83;;
14346;SDS011;7257;52.158;9.968;2022-10-16T01:56:20;1.80;;;1.70;;
14346;SDS011;7257;52.158;9.968;2022-10-16T01:56:43;1.98;;;1.83;;
14346;SDS011;7257;52.158;9.968;2022-10-16T01:57:05;2.20;;;2.00;;
14346;SDS011;7257;52.158;9.968;2022-10-16T01:57:28;1.95;;;1.77;;
14346;SDS011;7257;52.158;9.968;2022-10-16T01:57:51;2.20;;;1.50;;
14346;SDS011;7257;52.158;9.968;2022-10-16T01:58:15;5.60;;;1.60;;
14346;SDS011;7257;52.158;9.968;2022-10-16T01:58:37;5.80;;;1.60;;
14346;SDS011;7257;52.158;9.968;2022-10-16T01:59:03;4.75;;;1.80;;
14346;SDS011;7257;52.158;9.968;2022-10-16T01:59:26;2.65;;;1.88;;
14346;SDS011;7257;52.158;9.968;2022-10-16T01:59:52;3.03;;;2.20;;
14346;SDS011;7257;52.158;9.968;2022-10-16T02:00:17;2.00;;;1.75;;
14346;SDS011;7257;52.158;9.968;2022-10-16T02:00:42;1.80;;;1.70;;
14346;SDS011;7257;52.158;9.968;2022-10-16T02:01:06;2.20;;;2.00;;
14346;SDS011;7257;52.158;9.968;2022-10-16T02:01:31;2.30;;;2.10;;
14346;SDS011;7257;52.158;9.968;2022-10-16T02:01:56;2.00;;;1.80;;
14346;SDS011;7257;52.158;9.968;2022-10-16T02:02:20;1.90;;;1.73;;
14346;SDS011;7257;52.158;9.968;2022-10-16T02:02:44;1.80;;;1.70;;
14346;SDS011;7257;52.158;9.968;2022-10-16T02:03:09;1.95;;;1.75;;
14346;SDS011;7257;52.158;9.968;2022-10-16T02:03:34;2.28;;;1.80;;
14346;SDS011;7257;52.158;9.968;2022-10-16T02:03:58;2.70;;;1.92;;
14346;SDS011;7257;52.158;9.968;2022-10-16T02:04:24;2.90;;;2.00;;
14346;SDS011;7257;52.158;9.968;2022-10-16T02:04:49;2.70;;;1.70;;
14346;SDS011;7257;52.158;9.968;2022-10-16T02:05:20;2.00;;;1.73;;
14346;SDS011;7257;52.158;9.968;2022-10-16T02:05:45;2.10;;;1.90;;
14346;SDS011;7257;52.158;9.968;2022-10-16T02:06:08;2.20;;;2.00;;
14346;SDS011;7257;52.158;9.968;2022-10-16T02:06:29;2.20;;;2.00;;
14346;SDS011;7257;52.158;9.968;2022-10-16T02:06:52;2.17;;;1.92;;
14346;SDS011;7257;52.158;9.968;2022-10-16T02:07:13;3.28;;;2.00;;
14346;SDS011;7257;52.158;9.968;2022-10-16T02:07:34;2.90;;;1.95;;
14346;SDS011;7257;52.158;9.968;2022-10-16T02:07:55;2.65;;;1.83;;
14346;SDS011;7257;52.158;9.968;2022-10-16T02:08:16;1.70;;;1.60;;
14346;SDS011;7257;52.158;9.968;2022-10-16T02:08:39;2.78;;;1.80;;
14346;SDS011;7257;52.158;9.968;2022-10-16T02:09:04;3.97;;;2.20;;
14346;SDS011;7257;52.158;9.968;2022-10-16T02:09:25;3.20;;;2.25;;
14346;SDS011;7257;52.158;9.968;2022-10-16T02:09:46;2.83;;;1.90;;
14346;SDS011;7257;52.158;9.968;2022-10-16T02:10:07;2.10;;;1.73;;
14346;SDS011;7257;52.158;9.968;2022-10-16T02:10:30;2.50;;;1.80;;
14346;SDS011;7257;52.158;9.968;2022-10-16T02:10:51;2.55;;;2.20;;
14346;SDS011;7257;52.158;9.968;2022-10-16T02:11:12;2.97;;;2.67;;
14346;SDS011;7257;52.158;9.968;2022-10-16T02:11:33;3.08;;;2.88;;
14346;SDS011;7257;52.158;9.968;2022-10-16T02:11:54;4.07;;;2.88;;
14346;SDS011;7257;52.158;9.968;2022-10-16T02:12:21;3.45;;;2.20;;
14346;SDS011;7257;52.158;9.968;2022-10-16T02:12:49;2.58;;;1.70;;
14346;SDS011;7257;52.158;9.968;2022-10-16T02:13:17;1.90;;;1.70;;
14346;SDS011;7257;52.158;9.968;2022-10-16T02:13:44;2.60;;;2.40;;
14346;SDS011;7257;52.158;9.968;2022-10-16T02:14:08;4.40;;;2.80;;
14346;SDS011;7257;52.158;9.968;2022-10-16T02:14:29;4.00;;;2.13;;
14346;SDS011;7257;52.158;9.968;2022-10-16T02:14:50;4.03;;;2.15;;
14346;SDS011;7257;52.158;9.968;2022-10-16T02:15:11;1.90;;;1.70;;
14346;SDS011;7257;52.158;9.968;2022-10-16T02:15:33;2.00;;;1.80;;
14346;SDS011;7257;52.158;9.968;2022-10-16T02:15:53;2.47;;;2.27;;
14346;SDS011;7257;52.158;9.968;2022-10-16T02:16:14;3.00;;;2.72;;
14346;SDS011;7257;52.158;9.968;2022-10-16T02:16:36;3.00;;;2.75;;
14346;SDS011;7257;52.158;9.968;2022-10-16T02:16:59;2.28;;;2.08;;
14346;SDS011;7257;52.158;9.968;2022-10-16T02:17:20;2.53;;;2.33;;
14346;SDS011;7257;52.158;9.968;2022-10-16T02:17:41;2.67;;;2.47;;
14346;SDS011;7257;52.158;9.968;2022-10-16T02:18:02;2.80;;;2.60;;
14346;SDS011;7257;52.158;9.968;2022-10-16T02:18:25;2.38;;;1.98;;
14346;SDS011;7257;52.158;9.968;2022-10-16T02:18:50;2.08;;;1.63;;
14346;SDS011;7257;52.158;9.968;2022-10-16T02:19:12;2.47;;;2.28;;
14346;SDS011;7257;52.158;9.968;2022-10-16T02:19:35;2.38;;;2.17;;
14346;SDS011;7257;52.158;9.968;2022-10-16T02:19:56;2.30;;;1.83;;
14346;SDS011;7257;52.158;9.968;2022-10-16T02:20:19;2.00;;;1.73;;
14346;SDS011;7257;52.158;9.968;2022-10-16T02:20:49;1.83;;;1.50;;
14346;SDS011;7257;52.158;9.968;2022-10-16T02:21:16;1.98;;;1.40;;
14346;SDS011;7257;52.158;9.968;2022-10-16T02:21:44;2.28;;;1.67;;
14346;SDS011;7257;52.158;9.968;2022-10-16T02:22:16;2.10;;;1.65;;
14346;SDS011;7257;52.158;9.968;2022-10-16T02:22:42;2.20;;;1.90;;
14346;SDS011;7257;52.158;9.968;2022-10-16T02:23:07;2.10;;;1.88;;
14346;SDS011;7257;52.158;9.968;2022-10-16T02:23:35;1.90;;;1.80;;
14346;SDS011;7257;52.158;9.968;2022-10-16T02:24:02;2.00;;;1.80;;
14346;SDS011;7257;52.158;9.968;2022-10-16T02:24:29;1.90;;;1.25;;
14346;SDS011;7257;52.158;9.968;2022-10-16T02:24:54;1.50;;;1.20;;
14346;SDS011;7257;52.158;9.968;2022-10-16T02:25:19;1.63;;;1.52;;
14346;SDS011;7257;52.158;9.968;2022-10-16T02:25:46;2.05;;;1.67;;
14346;SDS011;7257;52.158;9.968;2022-10-16T02:26:09;2.20;;;1.80;;
14346;SDS011;7257;52.158;9.968;2022-10-16T02:26:35;1.95;;;1.63;;
14346;SDS011;7257;52.158;9.968;2022-10-16T02:27:02;2.03;;;1.75;;